sensor_id;sensor_type;location;lat;lon;timestamp;pressure;altitude;pressure_sealevel;temperature;humidity
3250;BME280;1637;42.020;23.992;2022-09-21T00:01:24;92928.84;;;7.73;91.88
3250;BME280;1637;42.020;23.992;2022-09-21T00:03:52;92926.16;;;7.62;92.11
3250;BME280;1637;42.020;23.992;2022-09-21T00:06:21;92930.34;;;7.74;92.33
3250;BME280;1637;42.020;23.992;2022-09-21T00:08:48;92883.88;;;7.39;94.47
3250;BME280;1637;42.020;23.992;2022-09-21T00:11:17;92927.34;;;8.04;91.37
3250;BME280;1637;42.020;23.992;2022-09-21T00:13:45;92923.53;;;7.90;91.34
3250;BME280;1637;42.020;23.992;2022-09-21T00:16:14;92928.47;;;7.99;91.87
3250;BME280;1637;42.020;23.992;2022-09-21T00:18:42;92931.94;;;8.10;89.38
3250;BME280;1637;42.020;23.992;2022-09-21T00:21:12;92929.63;;;8.16;87.96
3250;BME280;1637;42.020;23.992;2022-09-21T00:23:39;92921.63;;;7.91;87.35
3250;BME280;1637;42.020;23.992;2022-09-21T00:26:08;92924.25;;;7.70;88.56
3250;BME280;1637;42.020;23.992;2022-09-21T00:28:35;92916.66;;;7.72;88.26
3250;BME280;1637;42.020;23.992;2022-09-21T00:31:03;92915.88;;;7.46;90.24
3250;BME280;1637;42.020;23.992;2022-09-21T00:33:32;92915.81;;;7.32;93.39
3250;BME280;1637;42.020;23.992;2022-09-21T00:36:04;92914.69;;;7.40;94.56
3250;BME280;1637;42.020;23.992;2022-09-21T00:38:32;92916.22;;;7.41;94.94
3250;BME280;1637;42.020;23.992;2022-09-21T00:40:59;92919.97;;;7.22;97.03
3250;BME280;1637;42.020;23.992;2022-09-21T00:43:26;92921.94;;;7.40;97.45
3250;BME280;1637;42.020;23.992;2022-09-21T00:45:57;92909.69;;;7.28;98.62
3250;BME280;1637;42.020;23.992;2022-09-21T00:48:25;92911.63;;;7.24;99.83
3250;BME280;1637;42.020;23.992;2022-09-21T00:50:55;92911.16;;;7.01;100.00
3250;BME280;1637;42.020;23.992;2022-09-21T00:53:25;92910.69;;;6.88;100.00
3250;BME280;1637;42.020;23.992;2022-09-21T00:55:54;92910.66;;;6.74;100.00
3250;BME280;1637;42.020;23.992;2022-09-21T00:58:26;92904.94;;;6.75;100.00
3250;BME280;1637;42.020;23.992;2022-09-21T01:00:56;92898.09;;;6.71;100.00
3250;BME280;1637;42.020;23.992;2022-09-21T01:03:24;92895.50;;;6.85;100.00
3250;BME280;1637;42.020;23.992;2022-09-21T01:05:53;92898.88;;;6.78;100.00
3250;BME280;1637;42.020;23.992;2022-09-21T01:08:22;92896.94;;;6.72;100.00
3250;BME280;1637;42.020;23.992;2022-09-21T01:11:15;92889.19;;;6.45;100.00
3250;BME280;1637;42.020;23.992;2022-09-21T01:13:58;92897.75;;;6.79;100.00
3250;BME280;1637;42.020;23.992;2022-09-21T01:16:34;92894.06;;;7.12;99.90
3250;BME280;1637;42.020;23.992;2022-09-21T01:19:23;92889.88;;;7.11;97.67
3250;BME280;1637;42.020;23.992;2022-09-21T01:22:01;92882.28;;;7.06;97.62
3250;BME280;1637;42.020;23.992;2022-09-21T01:24:50;92886.47;;;7.18;97.13
3250;BME280;1637;42.020;23.992;2022-09-21T01:27:43;92881.59;;;7.52;95.65
3250;BME280;1637;42.020;23.992;2022-09-21T01:30:16;92880.41;;;7.21;95.30
3250;BME280;1637;42.020;23.992;2022-09-21T01:32:47;92876.19;;;7.13;95.79
3250;BME280;1637;42.020;23.992;2022-09-21T01:35:19;92841.50;;;6.92;96.51
3250;BME280;1637;42.020;23.992;2022-09-21T01:37:52;92883.47;;;7.34;97.17
3250;BME280;1637;42.020;23.992;2022-09-21T01:40:24;92881.19;;;7.25;97.60
3250;BME280;1637;42.020;23.992;2022-09-21T01:42:53;92880.81;;;7.51;97.73
3250;BME280;1637;42.020;23.992;2022-09-21T01:45:28;92882.00;;;7.65;96.30
3250;BME280;1637;42.020;23.992;2022-09-21T01:47:58;92887.34;;;7.79;93.91
3250;BME280;1637;42.020;23.992;2022-09-21T01:50:28;92880.84;;;7.73;94.38
3250;BME280;1637;42.020;23.992;2022-09-21T01:52:59;92886.56;;;7.68;95.39
3250;BME280;1637;42.020;23.992;2022-09-21T01:55:31;92859.13;;;7.71;94.01
3250;BME280;1637;42.020;23.992;2022-09-21T01:58:04;92888.88;;;8.01;92.61
3250;BME280;1637;42.020;23.992;2022-09-21T02:00:34;92886.94;;;7.94;92.39
3250;BME280;1637;42.020;23.992;2022-09-21T02:03:04;92882.38;;;7.99;91.45
3250;BME280;1637;42.020;23.992;2022-09-21T02:05:34;92886.97;;;7.80;92.11
3250;BME280;1637;42.020;23.992;2022-09-21T02:08:04;92859.53;;;7.90;92.62
3250;BME280;1637;42.020;23.992;2022-09-21T02:10:34;92876.66;;;8.25;90.83
3250;BME280;1637;42.020;23.992;2022-09-21T02:13:04;92878.56;;;8.00;91.28
3250;BME280;1637;42.020;23.992;2022-09-21T02:15:41;92878.91;;;7.38;95.00
3250;BME280;1637;42.020;23.992;2022-09-21T02:18:19;92877.78;;;7.42;94.77
3250;BME280;1637;42.020;23.992;2022-09-21T02:20:56;92873.22;;;7.53;94.33
3250;BME280;1637;42.020;23.992;2022-09-21T02:23:27;92880.03;;;7.37;95.35
3250;BME280;1637;42.020;23.992;2022-09-21T02:26:02;92880.84;;;7.55;94.93
3250;BME280;1637;42.020;23.992;2022-09-21T02:28:37;92878.94;;;7.55;94.63
3250;BME280;1637;42.020;23.992;2022-09-21T02:31:11;92878.94;;;7.63;94.87
3250;BME280;1637;42.020;23.992;2022-09-21T02:33:47;92884.28;;;7.63;94.64
3250;BME280;1637;42.020;23.992;2022-09-21T02:36:22;92876.66;;;7.75;94.79
3250;BME280;1637;42.020;23.992;2022-09-21T02:38:57;92875.91;;;8.00;91.39
3250;BME280;1637;42.020;23.992;2022-09-21T02:41:35;92886.94;;;8.16;90.47
3250;BME280;1637;42.020;23.992;2022-09-21T02:44:06;92875.53;;;7.76;90.94
3250;BME280;1637;42.020;23.992;2022-09-21T02:46:41;92886.59;;;8.10;90.09
3250;BME280;1637;42.020;23.992;2022-09-21T02:49:15;92884.66;;;8.11;90.81
3250;BME280;1637;42.020;23.992;2022-09-21T02:51:46;92878.19;;;8.26;89.99
3250;BME280;1637;42.020;23.992;2022-09-21T02:54:16;92880.09;;;8.22;89.22
3250;BME280;1637;42.020;23.992;2022-09-21T02:56:45;92873.22;;;8.35;88.65
3250;BME280;1637;42.020;23.992;2022-09-21T02:59:14;92864.84;;;8.26;88.42
3250;BME280;1637;42.020;23.992;2022-09-21T03:01:43;92880.09;;;8.29;88.65
3250;BME280;1637;42.020;23.992;2022-09-21T03:04:10;92872.84;;;8.30;88.09
3250;BME280;1637;42.020;23.992;2022-09-21T03:06:37;92878.56;;;8.14;90.81
3250;BME280;1637;42.020;23.992;2022-09-21T03:09:04;92877.78;;;8.20;90.33
3250;BME280;1637;42.020;23.992;2022-09-21T03:11:31;92864.84;;;7.94;89.79
3250;BME280;1637;42.020;23.992;2022-09-21T03:13:58;92885.41;;;8.18;89.88
3250;BME280;1637;42.020;23.992;2022-09-21T03:16:25;92872.84;;;7.76;92.57
3250;BME280;1637;42.020;23.992;2022-09-21T03:18:54;92878.59;;;7.82;92.49
3250;BME280;1637;42.020;23.992;2022-09-21T03:21:21;92881.59;;;8.12;91.58
3250;BME280;1637;42.020;23.992;2022-09-21T03:23:48;92874.75;;;8.40;89.18
3250;BME280;1637;42.020;23.992;2022-09-21T03:26:14;92880.84;;;8.44;88.85
3250;BME280;1637;42.020;23.992;2022-09-21T03:28:41;92877.03;;;8.34;88.65
3250;BME280;1637;42.020;23.992;2022-09-21T03:31:08;92878.94;;;8.16;90.17
3250;BME280;1637;42.020;23.992;2022-09-21T03:33:35;92883.13;;;7.92;91.69
3250;BME280;1637;42.020;23.992;2022-09-21T03:36:04;92875.16;;;7.78;93.39
3250;BME280;1637;42.020;23.992;2022-09-21T03:38:30;92878.56;;;7.96;93.11
3250;BME280;1637;42.020;23.992;2022-09-21T03:40:57;92884.69;;;7.89;92.28
3250;BME280;1637;42.020;23.992;2022-09-21T03:43:25;92882.38;;;7.74;92.84
3250;BME280;1637;42.020;23.992;2022-09-21T03:45:52;92886.56;;;7.78;93.85
3250;BME280;1637;42.020;23.992;2022-09-21T03:48:19;92883.53;;;7.76;94.06
3250;BME280;1637;42.020;23.992;2022-09-21T03:50:46;92886.97;;;7.80;93.63
3250;BME280;1637;42.020;23.992;2022-09-21T03:53:14;92880.47;;;7.64;93.49
3250;BME280;1637;42.020;23.992;2022-09-21T03:55:41;92882.38;;;7.67;94.01
3250;BME280;1637;42.020;23.992;2022-09-21T03:58:08;92882.75;;;7.58;96.14
3250;BME280;1637;42.020;23.992;2022-09-21T04:00:35;92960.44;;;7.71;97.33
3250;BME280;1637;42.020;23.992;2022-09-21T04:03:04;92876.25;;;7.55;99.86
3250;BME280;1637;42.020;23.992;2022-09-21T04:05:30;92882.75;;;7.65;99.99
3250;BME280;1637;42.020;23.992;2022-09-21T04:07:57;92886.94;;;7.55;100.00
3250;BME280;1637;42.020;23.992;2022-09-21T04:10:27;92896.47;;;7.78;100.00
3250;BME280;1637;42.020;23.992;2022-09-21T04:12:58;92890.00;;;7.79;98.69
3250;BME280;1637;42.020;23.992;2022-09-21T04:15:25;92891.09;;;7.42;100.00
3250;BME280;1637;42.020;23.992;2022-09-21T04:17:52;92897.50;;;7.13;100.00
3250;BME280;1637;42.020;23.992;2022-09-21T04:20:20;92894.53;;;7.39;100.00
3250;BME280;1637;42.020;23.992;2022-09-21T04:22:47;92888.44;;;7.39;100.00
3250;BME280;1637;42.020;23.992;2022-09-21T04:25:14;92870.88;;;7.20;100.00
3250;BME280;1637;42.020;23.992;2022-09-21T04:27:42;92898.28;;;7.31;100.00
3250;BME280;1637;42.020;23.992;2022-09-21T04:30:11;92910.53;;;7.46;100.00
3250;BME280;1637;42.020;23.992;2022-09-21T04:32:38;92888.44;;;7.42;100.00
3250;BME280;1637;42.020;23.992;2022-09-21T04:35:05;92878.56;;;7.46;100.00
3250;BME280;1637;42.020;23.992;2022-09-21T04:37:32;92889.59;;;7.52;100.00
3250;BME280;1637;42.020;23.992;2022-09-21T04:39:59;92892.63;;;7.54;100.00
3250;BME280;1637;42.020;23.992;2022-09-21T04:42:26;92900.63;;;7.57;100.00
3250;BME280;1637;42.020;23.992;2022-09-21T04:44:55;92899.09;;;7.39;100.00
3250;BME280;1637;42.020;23.992;2022-09-21T04:47:21;92896.78;;;7.30;100.00
3250;BME280;1637;42.020;23.992;2022-09-21T04:49:49;92903.63;;;7.31;100.00
3250;BME280;1637;42.020;23.992;2022-09-21T04:52:17;92903.31;;;7.57;99.85
3250;BME280;1637;42.020;23.992;2022-09-21T04:54:43;92903.28;;;7.54;98.73
3250;BME280;1637;42.020;23.992;2022-09-21T04:57:11;92901.03;;;7.74;97.89
3250;BME280;1637;42.020;23.992;2022-09-21T04:59:38;92899.09;;;7.53;98.72
3250;BME280;1637;42.020;23.992;2022-09-21T05:02:06;92904.84;;;7.66;97.76
3250;BME280;1637;42.020;23.992;2022-09-21T05:04:33;92885.44;;;7.93;95.87
3250;BME280;1637;42.020;23.992;2022-09-21T05:07:00;92903.72;;;8.31;93.31
3250;BME280;1637;42.020;23.992;2022-09-21T05:09:26;92909.06;;;8.09;94.32
3250;BME280;1637;42.020;23.992;2022-09-21T05:12:11;92907.16;;;8.20;94.10
3250;BME280;1637;42.020;23.992;2022-09-21T05:14:37;92906.38;;;8.20;93.46
3250;BME280;1637;42.020;23.992;2022-09-21T05:17:06;92902.97;;;8.05;94.60
3250;BME280;1637;42.020;23.992;2022-09-21T05:19:33;92900.28;;;8.12;94.33
3250;BME280;1637;42.020;23.992;2022-09-21T05:22:00;92899.53;;;8.44;93.65
3250;BME280;1637;42.020;23.992;2022-09-21T05:24:27;92898.38;;;8.20;94.41
3250;BME280;1637;42.020;23.992;2022-09-21T05:26:54;92894.53;;;8.53;93.13
3250;BME280;1637;42.020;23.992;2022-09-21T05:29:21;92895.59;;;8.91;90.27
3250;BME280;1637;42.020;23.992;2022-09-21T05:31:51;92861.03;;;8.38;91.21
3250;BME280;1637;42.020;23.992;2022-09-21T05:34:32;92897.56;;;8.69;91.32
3250;BME280;1637;42.020;23.992;2022-09-21T05:37:06;92891.09;;;8.56;91.44
3250;BME280;1637;42.020;23.992;2022-09-21T05:39:36;92889.44;;;8.98;88.93
3250;BME280;1637;42.020;23.992;2022-09-21T05:42:03;92883.63;;;9.17;91.51
3250;BME280;1637;42.020;23.992;2022-09-21T05:44:31;92889.63;;;9.39;87.44
3250;BME280;1637;42.020;23.992;2022-09-21T05:47:02;92891.19;;;9.36;87.06
3250;BME280;1637;42.020;23.992;2022-09-21T05:49:39;92890.59;;;9.73;87.01
3250;BME280;1637;42.020;23.992;2022-09-21T05:52:16;92884.66;;;9.99;84.32
3250;BME280;1637;42.020;23.992;2022-09-21T05:54:56;92893.81;;;10.88;80.82
3250;BME280;1637;42.020;23.992;2022-09-21T05:57:36;92896.88;;;12.98;72.27
3250;BME280;1637;42.020;23.992;2022-09-21T06:00:13;92904.50;;;13.79;68.56
3250;BME280;1637;42.020;23.992;2022-09-21T06:03:00;92896.91;;;13.73;66.82
3250;BME280;1637;42.020;23.992;2022-09-21T06:05:34;92898.38;;;13.58;67.02
3250;BME280;1637;42.020;23.992;2022-09-21T06:08:01;92895.75;;;12.76;68.58
3250;BME280;1637;42.020;23.992;2022-09-21T06:10:32;92891.78;;;12.14;70.95
3250;BME280;1637;42.020;23.992;2022-09-21T06:12:59;92893.81;;;11.83;72.93
3250;BME280;1637;42.020;23.992;2022-09-21T06:15:26;92859.09;;;11.11;73.59
3250;BME280;1637;42.020;23.992;2022-09-21T06:17:53;92894.13;;;11.27;74.09
3250;BME280;1637;42.020;23.992;2022-09-21T06:20:20;92895.25;;;12.37;71.36
3250;BME280;1637;42.020;23.992;2022-09-21T06:22:49;92888.84;;;13.18;68.20
3250;BME280;1637;42.020;23.992;2022-09-21T06:25:16;92895.31;;;13.76;65.37
3250;BME280;1637;42.020;23.992;2022-09-21T06:27:44;92898.34;;;14.47;62.29
3250;BME280;1637;42.020;23.992;2022-09-21T06:30:11;92892.16;;;13.45;64.74
3250;BME280;1637;42.020;23.992;2022-09-21T06:32:38;92891.94;;;13.16;65.85
3250;BME280;1637;42.020;23.992;2022-09-21T06:35:05;92902.13;;;12.85;66.63
3250;BME280;1637;42.020;23.992;2022-09-21T06:37:32;92898.09;;;12.50;68.01
3250;BME280;1637;42.020;23.992;2022-09-21T06:40:00;92902.72;;;12.26;70.38
3250;BME280;1637;42.020;23.992;2022-09-21T06:42:27;92902.31;;;12.28;71.53
3250;BME280;1637;42.020;23.992;2022-09-21T06:44:54;92907.47;;;12.42;70.64
3250;BME280;1637;42.020;23.992;2022-09-21T06:47:21;92907.97;;;12.33;69.84
3250;BME280;1637;42.020;23.992;2022-09-21T06:49:48;92908.06;;;12.26;71.22
3250;BME280;1637;42.020;23.992;2022-09-21T06:52:14;92909.66;;;12.47;69.56
3250;BME280;1637;42.020;23.992;2022-09-21T06:54:41;92907.31;;;12.72;68.87
3250;BME280;1637;42.020;23.992;2022-09-21T06:57:09;92916.16;;;12.93;68.50
3250;BME280;1637;42.020;23.992;2022-09-21T06:59:36;92914.03;;;13.27;68.15
3250;BME280;1637;42.020;23.992;2022-09-21T07:02:03;92917.44;;;12.42;69.95
3250;BME280;1637;42.020;23.992;2022-09-21T07:04:30;92912.78;;;12.22;70.31
3250;BME280;1637;42.020;23.992;2022-09-21T07:06:57;92910.31;;;12.55;70.07
3250;BME280;1637;42.020;23.992;2022-09-21T07:09:24;92911.31;;;12.64;68.75
3250;BME280;1637;42.020;23.992;2022-09-21T07:11:50;92907.69;;;12.94;67.99
3250;BME280;1637;42.020;23.992;2022-09-21T07:14:20;92908.69;;;13.44;66.68
3250;BME280;1637;42.020;23.992;2022-09-21T07:16:47;92908.84;;;14.08;63.31
3250;BME280;1637;42.020;23.992;2022-09-21T07:19:14;92907.59;;;14.13;63.57
3250;BME280;1637;42.020;23.992;2022-09-21T07:21:41;92906.91;;;14.09;63.73
3250;BME280;1637;42.020;23.992;2022-09-21T07:24:08;92873.22;;;14.01;64.24
3250;BME280;1637;42.020;23.992;2022-09-21T07:26:35;92910.44;;;14.87;61.80
3250;BME280;1637;42.020;23.992;2022-09-21T07:29:02;92903.94;;;15.42;62.29
3250;BME280;1637;42.020;23.992;2022-09-21T07:31:31;92910.44;;;16.12;59.22
3250;BME280;1637;42.020;23.992;2022-09-21T07:33:57;92908.56;;;16.60;58.50
3250;BME280;1637;42.020;23.992;2022-09-21T07:36:24;92907.03;;;16.71;56.71
3250;BME280;1637;42.020;23.992;2022-09-21T07:38:52;92907.91;;;17.81;53.97
3250;BME280;1637;42.020;23.992;2022-09-21T07:41:19;92908.72;;;15.51;56.62
3250;BME280;1637;42.020;23.992;2022-09-21T07:43:47;92912.75;;;17.42;54.28
3250;BME280;1637;42.020;23.992;2022-09-21T07:46:14;92910.50;;;18.74;47.20
3250;BME280;1637;42.020;23.992;2022-09-21T07:48:42;92899.09;;;19.15;48.58
3250;BME280;1637;42.020;23.992;2022-09-21T07:51:11;92904.84;;;19.27;47.89
3250;BME280;1637;42.020;23.992;2022-09-21T07:53:39;92902.84;;;17.27;50.64
3250;BME280;1637;42.020;23.992;2022-09-21T07:56:08;92891.00;;;15.50;52.61
3250;BME280;1637;42.020;23.992;2022-09-21T07:58:36;92916.09;;;17.68;49.61
3250;BME280;1637;42.020;23.992;2022-09-21T08:01:20;92890.03;;;17.93;49.05
3250;BME280;1637;42.020;23.992;2022-09-21T08:03:49;92896.09;;;19.13;46.57
3250;BME280;1637;42.020;23.992;2022-09-21T08:06:17;92906.34;;;19.64;42.46
3250;BME280;1637;42.020;23.992;2022-09-21T08:08:44;92878.19;;;18.48;45.22
3250;BME280;1637;42.020;23.992;2022-09-21T08:11:13;92900.28;;;18.69;44.16
3250;BME280;1637;42.020;23.992;2022-09-21T08:13:40;92893.41;;;16.62;47.66
3250;BME280;1637;42.020;23.992;2022-09-21T08:16:07;92859.25;;;16.56;49.00
3250;BME280;1637;42.020;23.992;2022-09-21T08:18:36;92886.28;;;17.03;49.71
3250;BME280;1637;42.020;23.992;2022-09-21T08:21:05;92881.13;;;17.17;49.23
3250;BME280;1637;42.020;23.992;2022-09-21T08:23:32;92884.13;;;15.20;52.74
3250;BME280;1637;42.020;23.992;2022-09-21T08:26:00;92873.88;;;15.69;52.34
3250;BME280;1637;42.020;23.992;2022-09-21T08:28:27;92881.28;;;16.67;50.23
3250;BME280;1637;42.020;23.992;2022-09-21T08:30:58;92883.28;;;17.44;48.27
3250;BME280;1637;42.020;23.992;2022-09-21T08:33:25;92859.47;;;17.17;47.26
3250;BME280;1637;42.020;23.992;2022-09-21T08:35:53;92862.63;;;16.34;49.35
3250;BME280;1637;42.020;23.992;2022-09-21T08:38:21;92878.94;;;16.43;50.27
3250;BME280;1637;42.020;23.992;2022-09-21T08:40:48;92876.59;;;16.20;51.25
3250;BME280;1637;42.020;23.992;2022-09-21T08:43:18;92864.94;;;16.10;52.71
3250;BME280;1637;42.020;23.992;2022-09-21T08:45:49;92870.31;;;16.36;52.03
3250;BME280;1637;42.020;23.992;2022-09-21T08:48:20;92874.72;;;16.90;48.72
3250;BME280;1637;42.020;23.992;2022-09-21T08:50:51;92870.66;;;17.29;49.68
3250;BME280;1637;42.020;23.992;2022-09-21T08:53:21;92868.75;;;18.62;47.31
3250;BME280;1637;42.020;23.992;2022-09-21T08:55:50;92867.72;;;19.23;44.27
3250;BME280;1637;42.020;23.992;2022-09-21T08:58:21;92860.63;;;20.14;41.47
3250;BME280;1637;42.020;23.992;2022-09-21T09:00:56;92857.69;;;19.84;43.62
3250;BME280;1637;42.020;23.992;2022-09-21T09:03:53;92867.38;;;19.76;42.65
3250;BME280;1637;42.020;23.992;2022-09-21T09:06:32;92857.47;;;18.82;43.43
3250;BME280;1637;42.020;23.992;2022-09-21T09:09:18;92861.47;;;18.01;44.53
3250;BME280;1637;42.020;23.992;2022-09-21T09:11:58;92854.84;;;18.02;44.23
3250;BME280;1637;42.020;23.992;2022-09-21T09:14:43;92851.13;;;18.67;43.90
3250;BME280;1637;42.020;23.992;2022-09-21T09:17:24;92855.03;;;19.39;41.40
3250;BME280;1637;42.020;23.992;2022-09-21T09:19:59;92846.63;;;19.18;42.85
3250;BME280;1637;42.020;23.992;2022-09-21T09:22:30;92852.63;;;19.13;43.88
3250;BME280;1637;42.020;23.992;2022-09-21T09:25:03;92854.84;;;18.02;48.65
3250;BME280;1637;42.020;23.992;2022-09-21T09:27:34;92844.19;;;17.76;50.31
3250;BME280;1637;42.020;23.992;2022-09-21T09:30:05;92850.19;;;17.06;51.04
3250;BME280;1637;42.020;23.992;2022-09-21T09:32:38;92846.97;;;16.76;52.04
3250;BME280;1637;42.020;23.992;2022-09-21T09:35:15;92846.22;;;16.16;55.81
3250;BME280;1637;42.020;23.992;2022-09-21T09:37:49;92832.63;;;15.81;55.50
3250;BME280;1637;42.020;23.992;2022-09-21T09:40:24;92845.50;;;15.77;56.03
3250;BME280;1637;42.020;23.992;2022-09-21T09:43:04;92835.34;;;15.15;54.68
3250;BME280;1637;42.020;23.992;2022-09-21T09:45:41;92841.41;;;14.90;55.36
3250;BME280;1637;42.020;23.992;2022-09-21T09:48:44;92836.34;;;14.63;55.66
3250;BME280;1637;42.020;23.992;2022-09-21T09:51:15;92846.91;;;14.41;56.65
3250;BME280;1637;42.020;23.992;2022-09-21T09:53:43;92844.84;;;14.61;57.28
3250;BME280;1637;42.020;23.992;2022-09-21T09:56:12;92840.47;;;14.35;57.30
3250;BME280;1637;42.020;23.992;2022-09-21T09:58:44;92839.56;;;14.09;59.59
3250;BME280;1637;42.020;23.992;2022-09-21T10:01:35;92849.47;;;13.80;60.71
3250;BME280;1637;42.020;23.992;2022-09-21T10:04:06;92842.78;;;13.52;62.80
3250;BME280;1637;42.020;23.992;2022-09-21T10:06:33;92833.16;;;13.34;63.70
3250;BME280;1637;42.020;23.992;2022-09-21T10:09:17;92838.09;;;13.20;64.67
3250;BME280;1637;42.020;23.992;2022-09-21T10:11:46;92823.53;;;12.97;65.42
3250;BME280;1637;42.020;23.992;2022-09-21T10:14:18;92831.59;;;12.97;66.52
3250;BME280;1637;42.020;23.992;2022-09-21T10:16:47;92822.06;;;13.32;66.33
3250;BME280;1637;42.020;23.992;2022-09-21T10:19:19;92827.03;;;13.14;66.23
3250;BME280;1637;42.020;23.992;2022-09-21T10:21:47;92818.13;;;13.37;65.44
3250;BME280;1637;42.020;23.992;2022-09-21T10:24:20;92825.38;;;13.40;66.10
3250;BME280;1637;42.020;23.992;2022-09-21T10:26:52;92817.31;;;13.56;65.76
3250;BME280;1637;42.020;23.992;2022-09-21T10:29:32;92832.75;;;13.36;65.91
3250;BME280;1637;42.020;23.992;2022-09-21T10:32:07;92829.06;;;13.30;66.12
3250;BME280;1637;42.020;23.992;2022-09-21T10:34:59;92811.19;;;12.80;65.62
3250;BME280;1637;42.020;23.992;2022-09-21T10:37:28;92830.84;;;12.77;65.45
3250;BME280;1637;42.020;23.992;2022-09-21T10:39:55;92847.66;;;13.01;65.38
3250;BME280;1637;42.020;23.992;2022-09-21T10:42:24;92838.91;;;13.17;65.33
3250;BME280;1637;42.020;23.992;2022-09-21T10:45:02;92830.66;;;12.88;66.00
3250;BME280;1637;42.020;23.992;2022-09-21T10:47:35;92835.75;;;13.22;65.69
3250;BME280;1637;42.020;23.992;2022-09-21T10:50:05;92807.41;;;12.97;64.83
3250;BME280;1637;42.020;23.992;2022-09-21T10:52:37;92838.63;;;12.91;66.10
3250;BME280;1637;42.020;23.992;2022-09-21T10:55:06;92832.56;;;12.87;66.06
3250;BME280;1637;42.020;23.992;2022-09-21T10:57:42;92857.97;;;12.63;66.18
3250;BME280;1637;42.020;23.992;2022-09-21T11:00:30;92830.06;;;12.77;67.52
3250;BME280;1637;42.020;23.992;2022-09-21T11:03:05;92845.06;;;12.54;68.75
3250;BME280;1637;42.020;23.992;2022-09-21T11:05:51;92829.34;;;12.53;70.24
3250;BME280;1637;42.020;23.992;2022-09-21T11:08:23;92822.41;;;12.55;70.22
3250;BME280;1637;42.020;23.992;2022-09-21T11:11:05;92830.13;;;12.53;73.58
3250;BME280;1637;42.020;23.992;2022-09-21T11:13:41;92823.47;;;12.61;70.73
3250;BME280;1637;42.020;23.992;2022-09-21T11:16:15;92817.75;;;12.79;70.39
3250;BME280;1637;42.020;23.992;2022-09-21T11:18:48;92819.59;;;12.82;69.81
3250;BME280;1637;42.020;23.992;2022-09-21T11:21:26;92818.97;;;12.94;69.43
3250;BME280;1637;42.020;23.992;2022-09-21T11:24:02;92818.50;;;12.99;70.98
3250;BME280;1637;42.020;23.992;2022-09-21T11:26:36;92818.19;;;13.14;70.41
3250;BME280;1637;42.020;23.992;2022-09-21T11:29:14;92819.09;;;13.47;68.95
3250;BME280;1637;42.020;23.992;2022-09-21T11:32:04;92819.13;;;13.27;67.40
3250;BME280;1637;42.020;23.992;2022-09-21T11:34:47;92815.25;;;13.08;67.90
3250;BME280;1637;42.020;23.992;2022-09-21T11:37:29;92816.44;;;13.07;66.40
3250;BME280;1637;42.020;23.992;2022-09-21T11:40:10;92817.19;;;13.07;66.09
3250;BME280;1637;42.020;23.992;2022-09-21T11:42:49;92830.28;;;13.25;66.32
3250;BME280;1637;42.020;23.992;2022-09-21T11:45:31;92813.16;;;13.35;64.85
3250;BME280;1637;42.020;23.992;2022-09-21T11:48:09;92811.91;;;13.40;64.96
3250;BME280;1637;42.020;23.992;2022-09-21T11:50:53;92812.53;;;13.48;65.80
3250;BME280;1637;42.020;23.992;2022-09-21T11:53:36;92811.16;;;13.39;63.92
3250;BME280;1637;42.020;23.992;2022-09-21T11:56:27;92811.81;;;13.27;65.67
3250;BME280;1637;42.020;23.992;2022-09-21T11:59:05;92819.19;;;13.23;65.96
3250;BME280;1637;42.020;23.992;2022-09-21T12:01:54;92811.13;;;13.23;64.82
3250;BME280;1637;42.020;23.992;2022-09-21T12:04:35;92812.22;;;13.26;64.76
3250;BME280;1637;42.020;23.992;2022-09-21T12:07:17;92746.88;;;12.89;64.71
3250;BME280;1637;42.020;23.992;2022-09-21T12:10:13;92803.03;;;13.59;63.93
3250;BME280;1637;42.020;23.992;2022-09-21T12:12:46;92812.41;;;13.87;63.12
3250;BME280;1637;42.020;23.992;2022-09-21T12:15:19;92823.06;;;13.74;63.89
3250;BME280;1637;42.020;23.992;2022-09-21T12:17:55;92796.44;;;13.28;64.76
3250;BME280;1637;42.020;23.992;2022-09-21T12:20:29;92792.75;;;13.38;67.62
3250;BME280;1637;42.020;23.992;2022-09-21T12:23:01;92799.06;;;13.48;65.52
3250;BME280;1637;42.020;23.992;2022-09-21T12:25:32;92757.78;;;13.54;65.90
3250;BME280;1637;42.020;23.992;2022-09-21T12:28:05;92797.22;;;13.61;66.14
3250;BME280;1637;42.020;23.992;2022-09-21T12:30:36;92798.00;;;13.94;65.89
3250;BME280;1637;42.020;23.992;2022-09-21T12:33:14;92797.84;;;13.68;66.30
3250;BME280;1637;42.020;23.992;2022-09-21T12:35:46;92788.78;;;13.26;67.13
3250;BME280;1637;42.020;23.992;2022-09-21T12:38:18;92790.66;;;13.62;66.85
3250;BME280;1637;42.020;23.992;2022-09-21T12:40:50;92799.16;;;13.60;65.18
3250;BME280;1637;42.020;23.992;2022-09-21T12:43:32;92807.06;;;14.16;65.41
3250;BME280;1637;42.020;23.992;2022-09-21T12:46:06;92795.66;;;14.12;63.42
3250;BME280;1637;42.020;23.992;2022-09-21T12:48:38;92809.56;;;14.39;63.07
3250;BME280;1637;42.020;23.992;2022-09-21T12:51:11;92795.13;;;14.33;63.64
3250;BME280;1637;42.020;23.992;2022-09-21T12:53:43;92808.78;;;14.10;66.51
3250;BME280;1637;42.020;23.992;2022-09-21T12:56:17;92810.38;;;14.07;64.42
3250;BME280;1637;42.020;23.992;2022-09-21T12:59:00;92810.63;;;14.13;63.96
3250;BME280;1637;42.020;23.992;2022-09-21T13:01:33;92768.50;;;14.19;64.81
3250;BME280;1637;42.020;23.992;2022-09-21T13:04:38;92813.69;;;14.60;63.76
3250;BME280;1637;42.020;23.992;2022-09-21T13:10:18;92816.00;;;14.29;66.20
3250;BME280;1637;42.020;23.992;2022-09-21T13:12:52;92807.47;;;14.47;67.04
3250;BME280;1637;42.020;23.992;2022-09-21T13:15:23;92821.38;;;14.29;67.93
3250;BME280;1637;42.020;23.992;2022-09-21T13:17:59;92823.09;;;13.91;71.56
3250;BME280;1637;42.020;23.992;2022-09-21T13:20:33;92830.13;;;13.32;73.65
3250;BME280;1637;42.020;23.992;2022-09-21T13:23:01;92833.81;;;13.22;71.44
3250;BME280;1637;42.020;23.992;2022-09-21T13:25:29;92829.25;;;13.19;70.79
3250;BME280;1637;42.020;23.992;2022-09-21T13:28:17;92815.47;;;13.53;69.94
3250;BME280;1637;42.020;23.992;2022-09-21T13:30:46;92820.97;;;13.66;66.95
3250;BME280;1637;42.020;23.992;2022-09-21T13:33:31;92820.28;;;13.62;65.22
3250;BME280;1637;42.020;23.992;2022-09-21T13:36:32;92819.03;;;13.66;64.29
3250;BME280;1637;42.020;23.992;2022-09-21T13:39:12;92783.09;;;13.57;65.75
3250;BME280;1637;42.020;23.992;2022-09-21T13:41:40;92821.22;;;13.71;61.46
3250;BME280;1637;42.020;23.992;2022-09-21T13:44:35;92789.38;;;13.34;61.48